Ash Township, Michigan
Current Conditions -  °F | °C
As of 7:53 PM on Saturday 22 Nov 2014 (Local Time) from KTTF Reporting Station
Overcast Overcast  
Wind Chill: 10°   Ceiling: 3300
Heat Index: 10°   Visibility: 10mi
Dew Point:   Wind: 14mph
Humidity: 76%   Direction: 220°SW
Pressure: 29.95"   Gusts: 20mph
Location:  42.051°N, 83.409°W
Report Text: KTTF 230053Z AUTO 22012G17KT 10SM BKN033 OVC065 10/06 A2995 RMK AO2
Loading
Personal Weather Stations






























Interactive Weather Map New forecast layout! Learn more

10-Day Weather Forecast

Advertisements
Track Severe Weather on mobile